createdAt,value
2023-04-17T00:00:17.936Z,13.27
2023-04-17T00:01:05.090Z,12.52
2023-04-17T00:01:52.497Z,12.50
2023-04-17T00:02:40.756Z,12.48
2023-04-17T00:03:28.090Z,12.90
2023-04-17T00:04:15.519Z,12.85
2023-04-17T00:05:02.729Z,12.65
2023-04-17T00:05:49.826Z,12.37
2023-04-17T00:06:37.943Z,12.85
2023-04-17T00:07:25.134Z,12.50
2023-04-17T00:08:13.063Z,12.77
2023-04-17T00:09:00.272Z,12.70
2023-04-17T00:09:47.344Z,12.75
2023-04-17T00:10:34.414Z,12.73
2023-04-17T00:11:21.792Z,13.07
2023-04-17T00:12:09.224Z,12.82
2023-04-17T00:12:57.035Z,12.30
2023-04-17T00:13:44.362Z,13.27
2023-04-17T00:14:31.560Z,12.93
2023-04-17T00:15:18.706Z,12.57
2023-04-17T00:16:06.281Z,12.75
2023-04-17T00:16:53.518Z,11.65
2023-04-17T00:17:40.673Z,12.93
2023-04-17T00:18:27.790Z,12.85
2023-04-17T00:19:14.924Z,12.45
2023-04-17T00:20:02.091Z,12.60
2023-04-17T00:20:49.246Z,12.75
2023-04-17T00:21:36.359Z,12.52
2023-04-17T00:22:23.807Z,12.90
2023-04-17T00:23:11.106Z,12.00
2023-04-17T00:23:58.649Z,12.43
2023-04-17T00:24:45.768Z,12.88
2023-04-17T00:25:32.983Z,12.63
2023-04-17T00:26:20.118Z,13.25
2023-04-17T00:27:07.204Z,12.32
2023-04-17T00:27:54.285Z,11.57
2023-04-17T00:28:41.400Z,12.52
2023-04-17T00:29:28.513Z,11.70
2023-04-17T00:30:15.762Z,11.73
2023-04-17T00:31:03.044Z,13.02
2023-04-17T00:31:50.173Z,12.80
2023-04-17T00:32:37.427Z,12.05
2023-04-17T00:33:24.655Z,12.23
2023-04-17T00:34:11.804Z,12.45
2023-04-17T00:34:58.813Z,12.15
2023-04-17T00:35:46.024Z,12.45
2023-04-17T00:36:33.317Z,12.65
2023-04-17T00:37:20.407Z,12.10
2023-04-17T00:38:09.472Z,11.52
2023-04-17T00:38:56.633Z,11.52
2023-04-17T00:39:43.883Z,12.13
2023-04-17T00:40:30.997Z,11.18
2023-04-17T00:41:18.526Z,12.63
2023-04-17T00:42:05.784Z,11.90
2023-04-17T00:42:56.506Z,11.63
2023-04-17T00:44:30.456Z,11.40
2023-04-17T00:45:17.810Z,11.73
2023-04-17T00:46:06.316Z,11.65
2023-04-17T00:46:53.682Z,11.68
2023-04-17T00:47:41.185Z,12.15
2023-04-17T00:48:28.363Z,12.60
2023-04-17T00:49:15.527Z,12.23
2023-04-17T00:50:04.067Z,11.32
2023-04-17T00:50:51.471Z,12.25
2023-04-17T00:51:38.778Z,11.65
2023-04-17T00:52:32.909Z,11.77
2023-04-17T00:53:20.078Z,11.45
2023-04-17T00:54:07.963Z,11.18
2023-04-17T00:54:55.434Z,11.43
2023-04-17T00:55:44.326Z,11.50
2023-04-17T00:56:31.536Z,12.68
2023-04-17T00:57:18.575Z,10.80
2023-04-17T00:58:05.953Z,11.10
2023-04-17T00:58:53.106Z,11.73
2023-04-17T00:59:40.658Z,10.73
2023-04-17T01:00:27.770Z,11.65
2023-04-17T01:01:15.052Z,11.45
2023-04-17T01:02:02.358Z,11.65
2023-04-17T01:02:49.633Z,10.98
2023-04-17T01:03:37.111Z,11.07
2023-04-17T01:04:24.533Z,10.63
2023-04-17T01:05:11.616Z,11.10
2023-04-17T01:05:58.970Z,10.77
2023-04-17T01:06:46.282Z,12.05
2023-04-17T01:07:33.362Z,11.15
2023-04-17T01:08:20.512Z,11.55
2023-04-17T01:09:08.343Z,10.90
2023-04-17T01:09:55.899Z,11.20
2023-04-17T01:10:42.958Z,10.90
2023-04-17T01:11:30.182Z,11.32
2023-04-17T01:12:20.010Z,10.80
2023-04-17T01:13:08.448Z,10.68
2023-04-17T01:13:55.674Z,11.95
2023-04-17T01:14:42.755Z,11.43
2023-04-17T01:15:29.855Z,10.65
2023-04-17T01:16:17.991Z,10.95
2023-04-17T01:17:06.111Z,10.93
2023-04-17T01:17:53.198Z,10.85
2023-04-17T01:18:40.510Z,11.30
2023-04-17T01:19:28.522Z,11.12
2023-04-17T01:20:15.660Z,11.00
2023-04-17T01:21:03.603Z,10.98
2023-04-17T01:21:50.683Z,10.98
2023-04-17T01:22:37.892Z,11.40
2023-04-17T01:23:26.470Z,10.45
2023-04-17T01:24:13.482Z,10.55
2023-04-17T01:25:00.592Z,11.15
2023-04-17T01:25:47.809Z,10.90
2023-04-17T01:26:34.970Z,11.48
2023-04-17T01:27:22.889Z,10.55
2023-04-17T01:28:10.602Z,10.27
2023-04-17T01:28:59.029Z,10.93
2023-04-17T01:29:46.293Z,10.65
2023-04-17T01:30:33.406Z,10.30
2023-04-17T01:31:21.533Z,10.98
2023-04-17T01:32:08.931Z,11.52
2023-04-17T01:32:56.401Z,10.95
2023-04-17T01:33:43.460Z,10.40
2023-04-17T01:34:30.750Z,10.32
2023-04-17T01:35:17.868Z,10.85
2023-04-17T01:36:05.424Z,11.23
2023-04-17T01:36:52.525Z,10.57
2023-04-17T01:37:39.692Z,11.10
2023-04-17T01:38:26.875Z,10.68
2023-04-17T01:39:14.099Z,10.60
2023-04-17T01:40:01.694Z,10.90
2023-04-17T01:40:48.733Z,10.80
2023-04-17T01:41:36.835Z,11.10
2023-04-17T01:42:24.078Z,10.93
2023-04-17T01:43:11.562Z,10.48
2023-04-17T01:43:58.582Z,10.25
2023-04-17T01:44:46.121Z,10.65
2023-04-17T01:45:33.151Z,11.38
2023-04-17T01:46:20.407Z,11.73
2023-04-17T01:47:07.615Z,11.70
2023-04-17T01:47:54.758Z,11.27
2023-04-17T01:48:41.788Z,10.82
2023-04-17T01:49:28.863Z,11.12
2023-04-17T01:50:16.051Z,10.43
2023-04-17T01:51:03.154Z,11.07
2023-04-17T01:51:50.314Z,10.68
2023-04-17T01:52:37.510Z,11.50
2023-04-17T01:53:24.557Z,10.95
2023-04-17T01:54:11.692Z,11.50
2023-04-17T01:54:58.927Z,11.02
2023-04-17T01:55:46.154Z,10.00
2023-04-17T01:56:33.314Z,10.75
2023-04-17T01:57:20.448Z,10.63
2023-04-17T01:58:07.541Z,11.93
2023-04-17T01:58:54.884Z,11.02
2023-04-17T01:59:41.956Z,10.18
2023-04-17T02:00:29.103Z,11.07
2023-04-17T02:01:16.542Z,11.80
2023-04-17T02:02:03.768Z,11.25
2023-04-17T02:02:51.412Z,10.57
2023-04-17T02:03:38.763Z,10.88
2023-04-17T02:04:26.360Z,10.73
2023-04-17T02:05:13.553Z,10.73
2023-04-17T02:06:01.530Z,10.88
2023-04-17T02:06:48.602Z,10.65
2023-04-17T02:07:35.681Z,11.07
2023-04-17T02:08:22.743Z,10.82
2023-04-17T02:09:10.109Z,10.85
2023-04-17T02:09:57.313Z,11.25
2023-04-17T02:10:44.662Z,11.25
2023-04-17T02:11:31.794Z,11.00
2023-04-17T02:12:19.654Z,11.63
2023-04-17T02:13:06.710Z,11.00
2023-04-17T02:13:53.854Z,10.82
2023-04-17T02:14:41.121Z,11.20
2023-04-17T02:15:28.496Z,11.43
2023-04-17T02:16:16.669Z,10.80
2023-04-17T02:17:03.792Z,10.85
2023-04-17T02:17:50.790Z,11.63
2023-04-17T02:18:37.881Z,10.73
2023-04-17T02:19:25.194Z,11.75
2023-04-17T02:20:12.843Z,10.40
2023-04-17T02:21:00.041Z,10.82
2023-04-17T02:21:47.103Z,10.73
2023-04-17T02:22:34.284Z,11.63
2023-04-17T02:23:21.552Z,10.73
2023-04-17T02:24:08.671Z,10.30
2023-04-17T02:24:55.713Z,10.63
2023-04-17T02:25:42.747Z,11.00
2023-04-17T02:26:29.842Z,10.55
2023-04-17T02:27:17.713Z,10.43
2023-04-17T02:28:05.162Z,10.30
2023-04-17T02:28:52.439Z,10.77
2023-04-17T02:29:39.612Z,10.55
2023-04-17T02:30:27.658Z,10.85
2023-04-17T02:31:15.294Z,10.23
2023-04-17T02:32:02.261Z,10.90
2023-04-17T02:32:53.334Z,11.25
2023-04-17T02:33:40.773Z,11.38
2023-04-17T02:34:28.042Z,11.20
2023-04-17T02:35:15.135Z,10.82
2023-04-17T02:36:02.311Z,10.82
2023-04-17T02:36:49.503Z,10.98
2023-04-17T02:37:36.787Z,11.80
2023-04-17T02:38:23.760Z,10.45
2023-04-17T02:39:11.059Z,10.35
2023-04-17T02:39:58.337Z,11.65
2023-04-17T02:40:45.515Z,10.95
2023-04-17T02:41:32.782Z,10.70
2023-04-17T02:42:19.805Z,11.07
2023-04-17T02:43:06.932Z,10.40
2023-04-17T02:43:54.087Z,10.65
2023-04-17T02:44:41.237Z,10.82
2023-04-17T02:45:28.372Z,11.35
2023-04-17T02:46:16.240Z,11.43
2023-04-17T02:47:03.335Z,11.20
2023-04-17T02:47:50.566Z,11.10
2023-04-17T02:48:37.723Z,11.07
2023-04-17T02:49:24.796Z,10.93
2023-04-17T02:50:12.610Z,10.93
2023-04-17T02:50:59.607Z,12.07
2023-04-17T02:51:46.598Z,11.10
2023-04-17T02:52:33.999Z,11.57
2023-04-17T02:53:21.138Z,11.00
2023-04-17T02:54:08.199Z,11.43
2023-04-17T02:54:56.836Z,10.93
2023-04-17T02:55:43.994Z,11.95
2023-04-17T02:56:31.145Z,11.43
2023-04-17T02:57:18.270Z,11.88
2023-04-17T02:58:05.278Z,10.98
2023-04-17T02:58:52.345Z,11.18
2023-04-17T02:59:39.449Z,12.10
2023-04-17T03:00:27.575Z,11.32
2023-04-17T03:01:14.680Z,11.45
2023-04-17T03:02:04.003Z,11.88
2023-04-17T03:02:51.595Z,11.02
2023-04-17T03:03:42.522Z,11.57
2023-04-17T03:04:29.769Z,11.30
2023-04-17T03:05:18.376Z,12.15
2023-04-17T03:06:05.534Z,10.82
2023-04-17T03:06:52.741Z,11.88
2023-04-17T03:07:40.101Z,12.15
2023-04-17T03:08:31.911Z,12.20
2023-04-17T03:09:22.675Z,11.82
2023-04-17T03:10:10.097Z,11.48
2023-04-17T03:10:57.398Z,11.18
2023-04-17T03:11:44.600Z,11.45
2023-04-17T03:12:31.661Z,11.90
2023-04-17T03:13:18.839Z,11.88
2023-04-17T03:14:05.907Z,11.15
2023-04-17T03:14:53.008Z,12.15
2023-04-17T03:15:40.217Z,12.25
2023-04-17T03:16:27.264Z,12.15
2023-04-17T03:17:15.146Z,11.45
2023-04-17T03:18:02.286Z,11.82
2023-04-17T03:18:49.427Z,12.15
2023-04-17T03:19:36.545Z,12.02
2023-04-17T03:20:23.678Z,11.77
2023-04-17T03:21:10.803Z,12.45
2023-04-17T03:21:57.984Z,12.52
2023-04-17T03:22:45.060Z,12.50
2023-04-17T03:23:32.168Z,12.10
2023-04-17T03:24:19.244Z,12.10
2023-04-17T03:25:06.802Z,11.77
2023-04-17T03:25:53.867Z,11.90
2023-04-17T03:26:40.938Z,12.30
2023-04-17T03:27:28.018Z,11.70
2023-04-17T03:28:15.232Z,12.30
2023-04-17T03:29:02.380Z,13.23
2023-04-17T03:29:49.608Z,12.18
2023-04-17T03:30:36.629Z,12.23
2023-04-17T03:31:26.036Z,13.00
2023-04-17T03:32:13.148Z,12.32
2023-04-17T03:33:00.440Z,12.02
2023-04-17T03:33:47.628Z,11.85
2023-04-17T03:34:34.905Z,12.07
2023-04-17T03:35:22.867Z,13.15
2023-04-17T03:36:10.059Z,12.85
2023-04-17T03:36:57.300Z,12.37
2023-04-17T03:37:44.474Z,12.37
2023-04-17T03:38:31.745Z,12.85
2023-04-17T03:39:18.903Z,12.45
2023-04-17T03:40:06.979Z,12.18
2023-04-17T03:40:54.111Z,11.85
2023-04-17T03:41:41.186Z,12.73
2023-04-17T03:42:28.511Z,12.70
2023-04-17T03:43:15.629Z,12.40
2023-04-17T03:44:02.728Z,12.40
2023-04-17T03:44:49.729Z,13.10
2023-04-17T03:45:36.948Z,12.75
2023-04-17T03:46:24.278Z,12.60
2023-04-17T03:47:11.621Z,13.45
2023-04-17T03:47:58.936Z,12.93
2023-04-17T03:48:46.205Z,13.18
2023-04-17T03:49:33.480Z,12.90
2023-04-17T03:50:20.798Z,12.75
2023-04-17T03:51:07.986Z,12.88
2023-04-17T03:51:55.095Z,13.25
2023-04-17T03:52:42.225Z,13.13
2023-04-17T03:53:31.264Z,12.80
2023-04-17T03:54:18.326Z,13.23
2023-04-17T03:55:06.205Z,13.10
2023-04-17T03:55:53.338Z,12.60
2023-04-17T03:56:40.566Z,13.32
2023-04-17T03:57:27.727Z,13.15
2023-04-17T03:58:14.780Z,13.05
2023-04-17T03:59:03.089Z,12.02
2023-04-17T03:59:50.117Z,12.93
2023-04-17T04:00:37.856Z,13.15
2023-04-17T04:01:28.675Z,12.55
2023-04-17T04:02:15.906Z,13.07
2023-04-17T04:03:03.560Z,12.55
2023-04-17T04:03:50.939Z,13.48
2023-04-17T04:04:38.204Z,12.77
2023-04-17T04:05:25.758Z,13.23
2023-04-17T04:06:12.923Z,13.05
2023-04-17T04:07:02.035Z,12.50
2023-04-17T04:07:49.134Z,12.55
2023-04-17T04:08:36.283Z,12.60
2023-04-17T04:09:23.360Z,12.40
2023-04-17T04:10:11.220Z,13.20
2023-04-17T04:10:58.321Z,13.62
2023-04-17T04:11:45.429Z,12.65
2023-04-17T04:12:32.509Z,12.55
2023-04-17T04:13:19.588Z,13.15
2023-04-17T04:14:06.769Z,13.10
2023-04-17T04:14:53.949Z,13.18
2023-04-17T04:15:41.039Z,13.02
2023-04-17T04:16:28.320Z,13.07
2023-04-17T04:17:15.745Z,12.80
2023-04-17T04:18:03.411Z,13.15
2023-04-17T04:18:50.587Z,12.95
2023-04-17T04:19:37.597Z,12.93
2023-04-17T04:20:24.732Z,13.55
2023-04-17T04:21:12.500Z,13.15
2023-04-17T04:21:59.631Z,13.50
2023-04-17T04:22:49.174Z,13.62
2023-04-17T04:23:38.189Z,13.10
2023-04-17T04:24:25.862Z,12.90
2023-04-17T04:25:12.927Z,13.15
2023-04-17T04:26:02.069Z,12.90
2023-04-17T04:26:50.029Z,13.95
2023-04-17T04:27:37.976Z,13.00
2023-04-17T04:28:28.380Z,12.00
2023-04-17T04:29:16.131Z,13.77
2023-04-17T04:30:04.916Z,12.90
2023-04-17T04:30:53.841Z,13.13
2023-04-17T04:31:41.011Z,13.18
2023-04-17T04:32:29.009Z,13.43
2023-04-17T04:33:17.639Z,13.23
2023-04-17T04:34:06.365Z,12.32
2023-04-17T04:34:56.504Z,13.35
2023-04-17T04:35:47.945Z,13.15
2023-04-17T04:36:36.707Z,12.98
2023-04-17T04:37:30.396Z,12.95
2023-04-17T04:38:18.064Z,12.00
2023-04-17T04:39:06.130Z,12.20
2023-04-17T04:39:54.409Z,12.85
2023-04-17T04:40:44.162Z,13.25
2023-04-17T04:41:34.129Z,13.50
2023-04-17T04:42:22.776Z,12.13
2023-04-17T04:43:13.085Z,12.90
2023-04-17T04:44:01.498Z,12.52
2023-04-17T04:44:48.621Z,12.20
2023-04-17T04:45:35.870Z,12.85
2023-04-17T04:46:23.101Z,12.40
2023-04-17T04:47:10.174Z,13.57
2023-04-17T04:47:57.438Z,13.52
2023-04-17T04:48:44.545Z,12.88
2023-04-17T04:49:31.592Z,12.65
2023-04-17T04:50:18.732Z,12.80
2023-04-17T04:51:06.176Z,12.18
2023-04-17T04:51:53.495Z,12.30
2023-04-17T04:52:40.781Z,12.95
2023-04-17T04:53:27.814Z,12.57
2023-04-17T04:54:14.944Z,12.85
2023-04-17T04:55:02.338Z,12.75
2023-04-17T04:55:49.495Z,12.68
2023-04-17T04:56:36.652Z,12.50
2023-04-17T04:57:23.771Z,13.07
2023-04-17T04:58:10.811Z,12.73
2023-04-17T04:58:57.989Z,12.00
2023-04-17T04:59:44.994Z,12.43
2023-04-17T05:00:32.583Z,12.45
2023-04-17T05:01:19.911Z,12.68
2023-04-17T05:02:07.311Z,12.57
2023-04-17T05:02:54.813Z,12.80
2023-04-17T05:03:42.427Z,12.43
2023-04-17T05:04:29.702Z,12.57
2023-04-17T05:05:16.867Z,11.68
2023-04-17T05:06:04.054Z,13.02
2023-04-17T05:06:52.151Z,12.52
2023-04-17T05:07:39.299Z,12.20
2023-04-17T05:08:26.324Z,12.37
2023-04-17T05:09:15.473Z,12.80
2023-04-17T05:10:04.618Z,12.57
2023-04-17T05:10:51.601Z,12.65
2023-04-17T05:11:38.810Z,12.43
2023-04-17T05:12:26.028Z,12.48
2023-04-17T05:13:13.116Z,11.55
2023-04-17T05:14:00.217Z,12.30
2023-04-17T05:14:48.175Z,12.07
2023-04-17T05:15:35.582Z,12.18
2023-04-17T05:16:22.734Z,11.68
2023-04-17T05:17:09.891Z,11.80
2023-04-17T05:17:57.268Z,12.18
2023-04-17T05:18:46.154Z,12.50
2023-04-17T05:19:33.136Z,12.80
2023-04-17T05:20:20.328Z,12.25
2023-04-17T05:21:07.349Z,13.02
2023-04-17T05:21:54.415Z,11.52
2023-04-17T05:22:41.706Z,12.00
2023-04-17T05:23:28.835Z,12.45
2023-04-17T05:24:16.053Z,11.95
2023-04-17T05:25:03.213Z,12.43
2023-04-17T05:25:50.407Z,11.55
2023-04-17T05:26:37.457Z,12.07
2023-04-17T05:27:27.068Z,11.63
2023-04-17T05:28:16.289Z,12.90
2023-04-17T05:29:04.065Z,11.98
2023-04-17T05:29:51.262Z,13.27
2023-04-17T05:30:38.535Z,11.52
2023-04-17T05:31:26.510Z,11.85
2023-04-17T05:32:13.578Z,11.55
2023-04-17T05:33:01.226Z,11.88
2023-04-17T05:33:48.485Z,11.20
2023-04-17T05:34:35.495Z,12.02
2023-04-17T05:35:22.660Z,12.20
2023-04-17T05:36:09.993Z,12.80
2023-04-17T05:36:57.145Z,12.02
2023-04-17T05:37:44.316Z,10.68
2023-04-17T05:38:32.051Z,12.02
2023-04-17T05:39:19.532Z,11.52
2023-04-17T05:40:07.474Z,11.30
2023-04-17T05:40:54.674Z,12.15
2023-04-17T05:41:41.798Z,11.43
2023-04-17T05:42:29.006Z,11.75
2023-04-17T05:43:16.116Z,11.55
2023-04-17T05:44:03.219Z,12.75
2023-04-17T05:44:50.372Z,11.30
2023-04-17T05:45:37.703Z,12.35
2023-04-17T05:46:24.896Z,11.45
2023-04-17T05:47:12.013Z,11.73
2023-04-17T05:47:59.572Z,12.15
2023-04-17T05:48:46.853Z,11.20
2023-04-17T05:49:34.021Z,11.52
2023-04-17T05:50:21.042Z,11.25
2023-04-17T05:51:08.073Z,11.80
2023-04-17T05:51:55.064Z,11.60
2023-04-17T05:52:42.203Z,11.23
2023-04-17T05:53:31.332Z,11.82
2023-04-17T05:54:18.315Z,11.75
2023-04-17T05:55:05.552Z,11.27
2023-04-17T05:55:52.639Z,11.60
2023-04-17T05:56:39.836Z,11.55
2023-04-17T05:57:26.931Z,10.95
2023-04-17T05:58:23.263Z,12.00
2023-04-17T05:59:11.548Z,11.48
2023-04-17T05:59:59.071Z,11.38
2023-04-17T06:00:46.307Z,11.25
2023-04-17T06:01:33.635Z,10.48
2023-04-17T06:02:20.898Z,10.95
2023-04-17T06:03:08.498Z,11.65
2023-04-17T06:03:56.134Z,11.35
2023-04-17T06:04:47.259Z,11.25
2023-04-17T06:05:34.625Z,11.88
2023-04-17T06:06:21.768Z,10.90
2023-04-17T06:07:10.251Z,11.25
2023-04-17T06:07:57.383Z,10.25
2023-04-17T06:08:44.490Z,10.85
2023-04-17T06:09:33.717Z,10.55
2023-04-17T06:10:21.180Z,11.95
2023-04-17T06:11:08.733Z,11.48
2023-04-17T06:11:56.026Z,11.50
2023-04-17T06:12:43.079Z,11.35
2023-04-17T06:13:30.352Z,11.25
2023-04-17T06:14:17.616Z,11.12
2023-04-17T06:15:05.803Z,11.45
2023-04-17T06:15:53.731Z,11.50
2023-04-17T06:16:41.005Z,10.80
2023-04-17T06:17:28.270Z,11.02
2023-04-17T06:18:16.465Z,11.60
2023-04-17T06:19:03.750Z,10.98
2023-04-17T06:19:51.136Z,12.63
2023-04-17T06:20:40.153Z,11.43
2023-04-17T06:21:28.032Z,11.73
2023-04-17T06:22:15.018Z,10.93
2023-04-17T06:23:02.133Z,11.98
2023-04-17T06:23:49.100Z,11.20
2023-04-17T06:24:37.514Z,12.35
2023-04-17T06:25:24.870Z,11.48
2023-04-17T06:26:13.120Z,10.95
2023-04-17T06:27:00.419Z,11.65
2023-04-17T06:27:47.959Z,10.52
2023-04-17T06:28:35.175Z,11.68
2023-04-17T06:29:22.631Z,11.60
2023-04-17T06:30:10.245Z,11.20
2023-04-17T06:30:59.230Z,11.93
2023-04-17T06:31:47.472Z,11.60
2023-04-17T06:32:43.763Z,10.77
2023-04-17T06:33:31.971Z,11.05
2023-04-17T06:34:21.840Z,11.50
2023-04-17T06:35:13.144Z,10.80
2023-04-17T06:36:00.815Z,10.98
2023-04-17T06:36:48.953Z,11.60
2023-04-17T06:37:38.231Z,11.75
2023-04-17T06:38:27.256Z,10.88
2023-04-17T06:39:14.838Z,10.82
2023-04-17T06:40:06.276Z,10.80
2023-04-17T06:40:54.403Z,10.40
2023-04-17T06:41:41.797Z,11.30
2023-04-17T06:42:29.598Z,11.10
2023-04-17T06:43:17.867Z,10.93
2023-04-17T06:44:07.331Z,10.75
2023-04-17T06:44:56.956Z,11.57
2023-04-17T06:45:46.008Z,11.55
2023-04-17T06:46:33.594Z,11.45
2023-04-17T06:47:26.789Z,11.88
2023-04-17T06:48:16.330Z,11.65
2023-04-17T06:49:04.311Z,11.70
2023-04-17T06:49:52.613Z,10.98
2023-04-17T06:50:42.684Z,12.63
2023-04-17T06:51:29.985Z,11.98
2023-04-17T06:52:20.856Z,11.85
2023-04-17T06:53:10.005Z,11.40
2023-04-17T06:53:57.165Z,11.15
2023-04-17T06:54:46.497Z,11.20
2023-04-17T06:55:33.690Z,12.40
2023-04-17T06:56:26.527Z,10.90
2023-04-17T06:57:14.298Z,11.18
2023-04-17T06:58:01.531Z,11.77
2023-04-17T06:58:48.808Z,11.35
2023-04-17T06:59:38.132Z,11.93
2023-04-17T07:00:26.391Z,11.80
2023-04-17T07:01:14.399Z,11.25
2023-04-17T07:02:03.037Z,11.95
2023-04-17T07:02:51.711Z,11.80
2023-04-17T07:03:42.505Z,11.98
2023-04-17T07:04:31.850Z,11.75
2023-04-17T07:05:19.071Z,11.85
2023-04-17T07:06:06.533Z,11.80
2023-04-17T07:06:53.692Z,12.52
2023-04-17T07:07:41.784Z,12.10
2023-04-17T07:08:29.942Z,11.80
2023-04-17T07:09:17.072Z,11.38
2023-04-17T07:10:05.021Z,11.05
2023-04-17T07:10:52.324Z,11.52
2023-04-17T07:11:39.480Z,11.93
2023-04-17T07:12:31.765Z,11.88
2023-04-17T07:13:18.866Z,11.60
2023-04-17T07:14:06.654Z,11.85
2023-04-17T07:14:53.973Z,11.70
2023-04-17T07:15:41.018Z,11.77
2023-04-17T07:16:28.197Z,11.57
2023-04-17T07:17:15.814Z,11.15
2023-04-17T07:18:04.405Z,11.60
2023-04-17T07:18:52.764Z,12.00
2023-04-17T07:19:40.353Z,11.12
2023-04-17T07:20:27.642Z,11.57
2023-04-17T07:21:16.002Z,11.93
2023-04-17T07:22:06.813Z,11.68
2023-04-17T07:22:55.838Z,11.32
2023-04-17T07:23:42.930Z,11.52
2023-04-17T07:25:36.685Z,11.12
2023-04-17T07:26:23.837Z,11.65
2023-04-17T07:27:11.316Z,12.05
2023-04-17T07:27:58.385Z,11.45
2023-04-17T07:28:47.019Z,12.37
2023-04-17T07:29:34.307Z,12.52
2023-04-17T07:30:21.407Z,12.32
2023-04-17T07:31:09.203Z,12.13
2023-04-17T07:31:56.635Z,11.95
2023-04-17T07:32:43.754Z,11.82
2023-04-17T07:33:31.182Z,11.90
2023-04-17T07:34:18.255Z,12.50
2023-04-17T07:35:05.680Z,11.95
2023-04-17T07:35:54.132Z,11.38
2023-04-17T07:36:41.355Z,12.00
2023-04-17T07:37:28.808Z,12.60
2023-04-17T07:38:16.334Z,12.10
2023-04-17T07:39:03.790Z,11.45
2023-04-17T07:39:50.995Z,11.30
2023-04-17T07:40:38.122Z,11.85
2023-04-17T07:41:25.252Z,11.73
2023-04-17T07:42:12.614Z,12.60
2023-04-17T07:42:59.784Z,11.88
2023-04-17T07:43:47.102Z,12.68
2023-04-17T07:44:34.449Z,11.82
2023-04-17T07:45:21.928Z,12.68
2023-04-17T07:46:09.151Z,11.85
2023-04-17T07:46:56.328Z,12.15
2023-04-17T07:47:43.691Z,12.60
2023-04-17T07:48:31.496Z,11.95
2023-04-17T07:49:18.994Z,11.73
2023-04-17T07:50:06.758Z,12.37
2023-04-17T07:50:54.022Z,11.88
2023-04-17T07:51:41.514Z,11.70
2023-04-17T07:52:28.625Z,12.15
2023-04-17T07:53:15.961Z,13.82
2023-04-17T07:54:03.957Z,12.37
2023-04-17T07:54:51.020Z,12.13
2023-04-17T07:55:38.137Z,12.30
2023-04-17T07:56:26.453Z,11.95
2023-04-17T07:57:15.293Z,12.65
2023-04-17T07:58:04.284Z,12.25
2023-04-17T07:58:52.914Z,12.73
2023-04-17T07:59:40.215Z,12.52
2023-04-17T08:00:28.440Z,12.37
2023-04-17T08:01:15.922Z,12.73
2023-04-17T08:02:04.004Z,12.93
2023-04-17T08:02:51.652Z,12.55
2023-04-17T08:03:42.173Z,13.50
2023-04-17T08:05:16.816Z,11.82
2023-04-17T08:06:03.939Z,12.55
2023-04-17T08:06:51.074Z,12.02
2023-04-17T08:07:38.143Z,12.35
2023-04-17T08:08:25.934Z,12.52
2023-04-17T08:09:13.426Z,11.48
2023-04-17T08:10:00.978Z,12.98
2023-04-17T08:10:48.614Z,12.75
2023-04-17T08:11:42.886Z,12.35
2023-04-17T08:12:37.211Z,12.63
2023-04-17T08:13:24.529Z,12.18
2023-04-17T08:14:12.246Z,13.02
2023-04-17T08:14:59.277Z,11.63
2023-04-17T08:15:46.936Z,12.50
2023-04-17T08:16:34.173Z,11.82
2023-04-17T08:17:23.545Z,12.75
2023-04-17T08:18:10.825Z,12.15
2023-04-17T08:18:57.849Z,12.27
2023-04-17T08:19:44.953Z,12.82
2023-04-17T08:20:32.116Z,12.32
2023-04-17T08:21:19.554Z,13.48
2023-04-17T08:22:07.629Z,12.25
2023-04-17T08:22:54.674Z,13.10
2023-04-17T08:23:42.136Z,12.73
2023-04-17T08:24:29.202Z,12.40
2023-04-17T08:25:16.501Z,12.75
2023-04-17T08:26:04.263Z,12.37
2023-04-17T08:26:51.317Z,13.18
2023-04-17T08:27:42.375Z,11.98
2023-04-17T08:28:29.881Z,12.37
2023-04-17T08:29:17.247Z,12.18
2023-04-17T08:30:06.124Z,12.37
2023-04-17T08:30:53.281Z,12.60
2023-04-17T08:31:41.167Z,12.85
2023-04-17T08:32:28.572Z,12.60
2023-04-17T08:33:18.896Z,12.50
2023-04-17T08:34:13.582Z,12.95
2023-04-17T08:35:02.060Z,12.65
2023-04-17T08:35:49.332Z,12.50
2023-04-17T08:36:36.414Z,11.70
2023-04-17T08:37:24.375Z,12.37
2023-04-17T08:38:14.369Z,11.65
2023-04-17T08:39:01.404Z,12.20
2023-04-17T08:39:52.919Z,11.68
2023-04-17T08:40:42.490Z,12.65
2023-04-17T08:41:34.524Z,13.07
2023-04-17T08:42:22.096Z,12.20
2023-04-17T08:43:16.771Z,12.25
2023-04-17T08:44:04.405Z,12.70
2023-04-17T08:44:51.352Z,12.57
2023-04-17T08:45:40.999Z,12.68
2023-04-17T08:46:28.758Z,12.73
2023-04-17T08:47:18.326Z,11.85
2023-04-17T08:48:06.574Z,12.70
2023-04-17T08:48:54.100Z,12.98
2023-04-17T08:49:44.192Z,12.48
2023-04-17T08:50:31.790Z,12.40
2023-04-17T08:51:19.117Z,12.43
2023-04-17T08:52:08.739Z,12.88
2023-04-17T08:52:55.841Z,12.23
2023-04-17T08:53:43.251Z,11.98
2023-04-17T08:54:30.858Z,12.02
2023-04-17T08:55:25.142Z,12.75
2023-04-17T08:56:12.155Z,12.02
2023-04-17T08:57:02.967Z,12.52
2023-04-17T08:58:07.041Z,11.65
2023-04-17T08:58:54.454Z,12.85
2023-04-17T08:59:46.084Z,12.68
2023-04-17T09:00:34.769Z,11.50
2023-04-17T09:01:21.807Z,11.73
2023-04-17T09:02:09.824Z,11.43
2023-04-17T09:02:59.613Z,10.90
2023-04-17T09:03:48.478Z,10.48
2023-04-17T09:04:40.732Z,10.13
2023-04-17T09:05:33.624Z,10.57
2023-04-17T09:06:21.397Z,10.52
2023-04-17T09:07:10.848Z,10.60
2023-04-17T09:08:12.923Z,10.55
2023-04-17T09:09:05.246Z,10.25
2023-04-17T09:09:54.520Z,10.20
2023-04-17T09:10:46.903Z,11.65
2023-04-17T09:11:34.332Z,10.43
2023-04-17T09:12:23.494Z,10.07
2023-04-17T09:13:14.979Z,10.90
2023-04-17T09:14:02.061Z,10.82
2023-04-17T09:14:49.537Z,10.98
2023-04-17T09:15:37.490Z,9.80
2023-04-17T09:16:26.211Z,10.13
2023-04-17T09:17:15.385Z,11.07
2023-04-17T09:18:03.985Z,10.20
2023-04-17T09:18:51.104Z,9.40
2023-04-17T09:19:38.872Z,10.35
2023-04-17T09:20:26.069Z,10.05
2023-04-17T09:21:14.573Z,10.93
2023-04-17T09:22:22.369Z,9.88
2023-04-17T09:23:10.993Z,10.98
2023-04-17T09:23:59.687Z,9.50
2023-04-17T09:24:47.737Z,10.52
2023-04-17T09:25:35.314Z,9.98
2023-04-17T09:26:24.487Z,10.07
2023-04-17T09:27:25.370Z,10.07
2023-04-17T09:28:15.096Z,11.20
2023-04-17T09:29:07.995Z,11.40
2023-04-17T09:30:05.159Z,10.40
2023-04-17T09:30:52.335Z,10.13
2023-04-17T09:31:41.725Z,10.70
2023-04-17T09:32:30.326Z,10.32
2023-04-17T09:33:17.537Z,10.82
2023-04-17T09:34:07.682Z,10.98
2023-04-17T09:34:57.328Z,10.88
2023-04-17T09:35:45.006Z,11.38
2023-04-17T09:36:40.260Z,11.60
2023-04-17T09:37:44.942Z,10.80
2023-04-17T09:38:38.802Z,11.05
2023-04-17T09:39:25.967Z,11.68
2023-04-17T09:40:13.053Z,11.00
2023-04-17T09:41:00.368Z,11.75
2023-04-17T09:41:47.508Z,11.38
2023-04-17T09:42:34.602Z,10.60
2023-04-17T09:43:23.058Z,11.10
2023-04-17T09:44:10.411Z,10.88
2023-04-17T09:44:58.437Z,11.32
2023-04-17T09:45:46.409Z,10.95
2023-04-17T09:46:40.172Z,10.95
2023-04-17T09:47:30.038Z,10.77
2023-04-17T09:48:18.048Z,10.90
2023-04-17T09:49:20.237Z,10.73
2023-04-17T09:50:08.621Z,11.00
2023-04-17T09:50:56.624Z,10.88
2023-04-17T09:51:43.981Z,11.07
2023-04-17T09:52:31.532Z,11.12
2023-04-17T09:53:19.617Z,10.98
2023-04-17T09:54:09.609Z,11.23
2023-04-17T09:54:57.320Z,10.85
2023-04-17T09:55:44.952Z,11.32
2023-04-17T09:56:34.272Z,11.23
2023-04-17T09:57:21.676Z,10.98
2023-04-17T09:58:08.980Z,12.02
2023-04-17T09:58:57.798Z,11.98
2023-04-17T09:59:46.036Z,10.93
2023-04-17T10:00:33.214Z,11.38
2023-04-17T10:01:21.044Z,11.65
2023-04-17T10:02:12.855Z,11.88
2023-04-17T10:03:01.137Z,11.18
2023-04-17T10:03:48.768Z,11.30
2023-04-17T10:04:36.826Z,11.60
2023-04-17T10:05:30.163Z,12.10
2023-04-17T10:06:17.616Z,12.32
2023-04-17T10:07:04.746Z,12.32
2023-04-17T10:07:52.378Z,11.63
2023-04-17T10:08:40.032Z,12.40
2023-04-17T10:09:27.631Z,12.30
2023-04-17T10:10:31.375Z,13.40
2023-04-17T10:11:18.648Z,12.43
2023-04-17T10:12:06.015Z,12.05
2023-04-17T10:13:01.988Z,12.63
2023-04-17T10:14:04.745Z,11.65
2023-04-17T10:14:52.734Z,12.37
2023-04-17T10:15:40.013Z,11.70
2023-04-17T10:16:40.653Z,12.30
2023-04-17T10:18:25.345Z,11.93
2023-04-17T10:19:28.008Z,12.55
2023-04-17T10:20:20.511Z,12.10
2023-04-17T10:21:25.193Z,11.95
2023-04-17T10:22:18.476Z,11.60
2023-04-17T10:23:26.115Z,11.48